sensor_id;sensor_type;location;lat;lon;timestamp;P1;durP1;ratioP1;P2;durP2;ratioP2
28166;SDS011;15455;53.376;-6.262;2023-05-07T00:00:06;12.48;;;3.90;;
28166;SDS011;15455;53.376;-6.262;2023-05-07T00:02:53;12.05;;;3.58;;
28166;SDS011;15455;53.376;-6.262;2023-05-07T00:05:39;12.65;;;3.15;;
28166;SDS011;15455;53.376;-6.262;2023-05-07T00:08:25;9.70;;;3.03;;
28166;SDS011;15455;53.376;-6.262;2023-05-07T00:11:10;11.32;;;3.92;;
28166;SDS011;15455;53.376;-6.262;2023-05-07T00:13:56;15.02;;;3.75;;
28166;SDS011;15455;53.376;-6.262;2023-05-07T00:16:42;7.95;;;3.22;;
28166;SDS011;15455;53.376;-6.262;2023-05-07T00:19:27;10.10;;;2.92;;
28166;SDS011;15455;53.376;-6.262;2023-05-07T00:22:13;11.30;;;2.90;;
28166;SDS011;15455;53.376;-6.262;2023-05-07T00:24:58;8.02;;;3.22;;
28166;SDS011;15455;53.376;-6.262;2023-05-07T00:27:44;7.53;;;3.15;;
28166;SDS011;15455;53.376;-6.262;2023-05-07T00:30:29;9.02;;;2.38;;
28166;SDS011;15455;53.376;-6.262;2023-05-07T00:33:15;9.05;;;2.90;;
28166;SDS011;15455;53.376;-6.262;2023-05-07T00:36:00;8.13;;;3.05;;
28166;SDS011;15455;53.376;-6.262;2023-05-07T00:38:46;8.18;;;3.17;;
28166;SDS011;15455;53.376;-6.262;2023-05-07T00:41:32;7.05;;;3.15;;
28166;SDS011;15455;53.376;-6.262;2023-05-07T00:44:18;9.07;;;2.67;;
28166;SDS011;15455;53.376;-6.262;2023-05-07T00:47:03;9.00;;;2.97;;
28166;SDS011;15455;53.376;-6.262;2023-05-07T00:49:50;11.90;;;2.92;;
28166;SDS011;15455;53.376;-6.262;2023-05-07T00:52:36;11.70;;;3.30;;
28166;SDS011;15455;53.376;-6.262;2023-05-07T00:55:23;16.77;;;3.28;;
28166;SDS011;15455;53.376;-6.262;2023-05-07T00:58:09;10.15;;;3.15;;
28166;SDS011;15455;53.376;-6.262;2023-05-07T01:00:54;10.57;;;3.45;;
28166;SDS011;15455;53.376;-6.262;2023-05-07T01:03:40;10.15;;;3.80;;
28166;SDS011;15455;53.376;-6.262;2023-05-07T01:06:26;6.32;;;3.17;;
28166;SDS011;15455;53.376;-6.262;2023-05-07T01:09:14;10.88;;;3.05;;
28166;SDS011;15455;53.376;-6.262;2023-05-07T01:11:59;9.40;;;3.55;;
28166;SDS011;15455;53.376;-6.262;2023-05-07T01:14:45;7.47;;;2.67;;
28166;SDS011;15455;53.376;-6.262;2023-05-07T01:17:41;9.02;;;2.40;;
28166;SDS011;15455;53.376;-6.262;2023-05-07T01:20:35;5.72;;;2.83;;
28166;SDS011;15455;53.376;-6.262;2023-05-07T01:23:21;10.85;;;3.35;;
28166;SDS011;15455;53.376;-6.262;2023-05-07T01:26:07;6.00;;;2.53;;
28166;SDS011;15455;53.376;-6.262;2023-05-07T01:28:53;8.88;;;2.95;;
28166;SDS011;15455;53.376;-6.262;2023-05-07T01:31:40;13.20;;;2.72;;
28166;SDS011;15455;53.376;-6.262;2023-05-07T01:34:28;12.95;;;3.17;;
28166;SDS011;15455;53.376;-6.262;2023-05-07T01:37:16;7.45;;;3.35;;
28166;SDS011;15455;53.376;-6.262;2023-05-07T01:40:02;6.85;;;2.25;;
28166;SDS011;15455;53.376;-6.262;2023-05-07T01:42:48;11.50;;;2.67;;
28166;SDS011;15455;53.376;-6.262;2023-05-07T01:45:34;13.55;;;2.90;;
28166;SDS011;15455;53.376;-6.262;2023-05-07T01:48:20;6.53;;;2.20;;
28166;SDS011;15455;53.376;-6.262;2023-05-07T01:51:06;9.10;;;3.15;;
28166;SDS011;15455;53.376;-6.262;2023-05-07T01:53:53;7.78;;;2.50;;
28166;SDS011;15455;53.376;-6.262;2023-05-07T01:56:39;10.43;;;2.92;;
28166;SDS011;15455;53.376;-6.262;2023-05-07T01:59:25;8.40;;;2.40;;
28166;SDS011;15455;53.376;-6.262;2023-05-07T02:02:11;5.15;;;2.10;;
28166;SDS011;15455;53.376;-6.262;2023-05-07T02:05:00;6.53;;;2.70;;
28166;SDS011;15455;53.376;-6.262;2023-05-07T02:07:46;8.40;;;2.65;;
28166;SDS011;15455;53.376;-6.262;2023-05-07T02:10:34;15.50;;;3.15;;
28166;SDS011;15455;53.376;-6.262;2023-05-07T02:13:23;7.80;;;2.88;;
28166;SDS011;15455;53.376;-6.262;2023-05-07T02:16:09;7.93;;;2.85;;
28166;SDS011;15455;53.376;-6.262;2023-05-07T02:18:56;8.40;;;2.53;;
28166;SDS011;15455;53.376;-6.262;2023-05-07T02:21:43;7.68;;;2.40;;
28166;SDS011;15455;53.376;-6.262;2023-05-07T02:24:29;7.20;;;2.72;;
28166;SDS011;15455;53.376;-6.262;2023-05-07T02:27:14;6.30;;;3.15;;
28166;SDS011;15455;53.376;-6.262;2023-05-07T02:30:01;3.38;;;2.13;;
28166;SDS011;15455;53.376;-6.262;2023-05-07T02:32:48;5.45;;;2.22;;
28166;SDS011;15455;53.376;-6.262;2023-05-07T02:35:33;9.60;;;2.75;;
28166;SDS011;15455;53.376;-6.262;2023-05-07T02:38:19;6.15;;;2.30;;
28166;SDS011;15455;53.376;-6.262;2023-05-07T02:41:04;8.38;;;2.70;;
28166;SDS011;15455;53.376;-6.262;2023-05-07T02:43:50;7.35;;;2.22;;
28166;SDS011;15455;53.376;-6.262;2023-05-07T02:46:36;12.45;;;3.20;;
28166;SDS011;15455;53.376;-6.262;2023-05-07T02:49:26;7.82;;;2.70;;
28166;SDS011;15455;53.376;-6.262;2023-05-07T02:52:12;4.72;;;2.60;;
28166;SDS011;15455;53.376;-6.262;2023-05-07T02:54:57;8.45;;;2.72;;
28166;SDS011;15455;53.376;-6.262;2023-05-07T02:57:42;8.82;;;2.85;;
28166;SDS011;15455;53.376;-6.262;2023-05-07T03:00:28;8.02;;;2.75;;
28166;SDS011;15455;53.376;-6.262;2023-05-07T03:03:34;9.20;;;2.80;;
28166;SDS011;15455;53.376;-6.262;2023-05-07T03:06:20;8.13;;;2.55;;
28166;SDS011;15455;53.376;-6.262;2023-05-07T03:09:06;6.15;;;2.85;;
28166;SDS011;15455;53.376;-6.262;2023-05-07T03:11:52;13.07;;;3.15;;
28166;SDS011;15455;53.376;-6.262;2023-05-07T03:14:38;6.97;;;2.53;;
28166;SDS011;15455;53.376;-6.262;2023-05-07T03:17:23;5.88;;;2.50;;
28166;SDS011;15455;53.376;-6.262;2023-05-07T03:20:09;8.68;;;3.03;;
28166;SDS011;15455;53.376;-6.262;2023-05-07T03:22:56;7.57;;;2.75;;
28166;SDS011;15455;53.376;-6.262;2023-05-07T03:25:42;12.35;;;3.60;;
28166;SDS011;15455;53.376;-6.262;2023-05-07T03:28:27;6.82;;;2.90;;
28166;SDS011;15455;53.376;-6.262;2023-05-07T03:31:18;9.95;;;2.97;;
28166;SDS011;15455;53.376;-6.262;2023-05-07T03:34:03;8.90;;;3.42;;
28166;SDS011;15455;53.376;-6.262;2023-05-07T03:36:49;8.15;;;3.28;;
28166;SDS011;15455;53.376;-6.262;2023-05-07T03:39:36;9.05;;;2.78;;
28166;SDS011;15455;53.376;-6.262;2023-05-07T03:42:22;10.80;;;2.55;;
28166;SDS011;15455;53.376;-6.262;2023-05-07T03:45:09;4.18;;;2.15;;
28166;SDS011;15455;53.376;-6.262;2023-05-07T03:47:59;8.00;;;2.70;;
28166;SDS011;15455;53.376;-6.262;2023-05-07T03:50:45;11.57;;;3.30;;
28166;SDS011;15455;53.376;-6.262;2023-05-07T03:53:31;13.00;;;2.78;;
28166;SDS011;15455;53.376;-6.262;2023-05-07T03:56:17;8.90;;;2.55;;
28166;SDS011;15455;53.376;-6.262;2023-05-07T03:59:04;13.13;;;3.35;;
28166;SDS011;15455;53.376;-6.262;2023-05-07T04:01:49;6.55;;;2.25;;
28166;SDS011;15455;53.376;-6.262;2023-05-07T04:04:38;6.50;;;2.83;;
28166;SDS011;15455;53.376;-6.262;2023-05-07T04:07:24;11.30;;;3.30;;
28166;SDS011;15455;53.376;-6.262;2023-05-07T04:10:09;11.90;;;3.10;;
28166;SDS011;15455;53.376;-6.262;2023-05-07T04:12:58;9.15;;;4.22;;
28166;SDS011;15455;53.376;-6.262;2023-05-07T04:15:46;10.23;;;2.70;;
28166;SDS011;15455;53.376;-6.262;2023-05-07T04:18:35;11.05;;;3.08;;
28166;SDS011;15455;53.376;-6.262;2023-05-07T04:21:22;5.47;;;2.80;;
28166;SDS011;15455;53.376;-6.262;2023-05-07T04:24:10;12.88;;;3.30;;
28166;SDS011;15455;53.376;-6.262;2023-05-07T04:26:56;10.15;;;2.17;;
28166;SDS011;15455;53.376;-6.262;2023-05-07T04:29:41;7.78;;;2.78;;
28166;SDS011;15455;53.376;-6.262;2023-05-07T04:32:30;6.00;;;3.08;;
28166;SDS011;15455;53.376;-6.262;2023-05-07T04:35:16;8.82;;;2.97;;
28166;SDS011;15455;53.376;-6.262;2023-05-07T04:38:02;4.70;;;2.53;;
28166;SDS011;15455;53.376;-6.262;2023-05-07T04:40:49;6.03;;;3.10;;
28166;SDS011;15455;53.376;-6.262;2023-05-07T04:43:39;7.47;;;2.60;;
28166;SDS011;15455;53.376;-6.262;2023-05-07T04:46:25;4.75;;;2.58;;
28166;SDS011;15455;53.376;-6.262;2023-05-07T04:49:13;7.13;;;2.67;;
28166;SDS011;15455;53.376;-6.262;2023-05-07T04:51:59;8.35;;;3.15;;
28166;SDS011;15455;53.376;-6.262;2023-05-07T04:54:44;8.18;;;2.88;;
28166;SDS011;15455;53.376;-6.262;2023-05-07T04:57:30;7.60;;;2.97;;
28166;SDS011;15455;53.376;-6.262;2023-05-07T05:00:15;10.88;;;3.13;;
28166;SDS011;15455;53.376;-6.262;2023-05-07T05:03:03;6.43;;;2.83;;
28166;SDS011;15455;53.376;-6.262;2023-05-07T05:05:50;6.45;;;3.20;;
28166;SDS011;15455;53.376;-6.262;2023-05-07T05:08:38;7.68;;;2.80;;
28166;SDS011;15455;53.376;-6.262;2023-05-07T05:11:27;6.47;;;3.03;;
28166;SDS011;15455;53.376;-6.262;2023-05-07T05:14:12;7.60;;;2.97;;
28166;SDS011;15455;53.376;-6.262;2023-05-07T05:16:58;7.25;;;2.80;;
28166;SDS011;15455;53.376;-6.262;2023-05-07T05:19:43;5.63;;;2.90;;
28166;SDS011;15455;53.376;-6.262;2023-05-07T05:22:29;6.90;;;2.55;;
28166;SDS011;15455;53.376;-6.262;2023-05-07T05:25:17;6.03;;;3.03;;
28166;SDS011;15455;53.376;-6.262;2023-05-07T05:28:04;6.10;;;2.50;;
28166;SDS011;15455;53.376;-6.262;2023-05-07T05:30:51;5.50;;;2.70;;
28166;SDS011;15455;53.376;-6.262;2023-05-07T05:33:37;5.72;;;2.35;;
28166;SDS011;15455;53.376;-6.262;2023-05-07T05:36:23;11.30;;;3.25;;
28166;SDS011;15455;53.376;-6.262;2023-05-07T05:39:12;7.47;;;3.03;;
28166;SDS011;15455;53.376;-6.262;2023-05-07T05:41:58;11.10;;;3.67;;
28166;SDS011;15455;53.376;-6.262;2023-05-07T05:44:44;5.75;;;3.00;;
28166;SDS011;15455;53.376;-6.262;2023-05-07T05:47:30;10.07;;;3.22;;
28166;SDS011;15455;53.376;-6.262;2023-05-07T05:50:16;6.50;;;2.50;;
28166;SDS011;15455;53.376;-6.262;2023-05-07T05:53:02;17.20;;;3.15;;
28166;SDS011;15455;53.376;-6.262;2023-05-07T05:55:48;6.68;;;2.60;;
28166;SDS011;15455;53.376;-6.262;2023-05-07T05:58:34;7.82;;;2.53;;
28166;SDS011;15455;53.376;-6.262;2023-05-07T06:01:23;7.10;;;2.17;;
28166;SDS011;15455;53.376;-6.262;2023-05-07T06:04:11;8.82;;;2.80;;
28166;SDS011;15455;53.376;-6.262;2023-05-07T06:06:57;4.78;;;1.98;;
28166;SDS011;15455;53.376;-6.262;2023-05-07T06:09:43;9.50;;;2.67;;
28166;SDS011;15455;53.376;-6.262;2023-05-07T06:12:30;5.80;;;2.72;;
28166;SDS011;15455;53.376;-6.262;2023-05-07T06:15:16;9.05;;;3.10;;
28166;SDS011;15455;53.376;-6.262;2023-05-07T06:18:02;7.97;;;2.70;;
28166;SDS011;15455;53.376;-6.262;2023-05-07T06:20:48;9.15;;;2.63;;
28166;SDS011;15455;53.376;-6.262;2023-05-07T06:23:41;8.25;;;2.85;;
28166;SDS011;15455;53.376;-6.262;2023-05-07T06:26:28;5.90;;;2.30;;
28166;SDS011;15455;53.376;-6.262;2023-05-07T06:29:13;3.92;;;2.50;;
28166;SDS011;15455;53.376;-6.262;2023-05-07T06:32:10;7.13;;;2.45;;
28166;SDS011;15455;53.376;-6.262;2023-05-07T06:34:59;6.35;;;3.03;;
28166;SDS011;15455;53.376;-6.262;2023-05-07T06:37:45;8.02;;;3.40;;
28166;SDS011;15455;53.376;-6.262;2023-05-07T06:40:35;7.00;;;2.78;;
28166;SDS011;15455;53.376;-6.262;2023-05-07T06:43:21;9.65;;;2.75;;
28166;SDS011;15455;53.376;-6.262;2023-05-07T06:46:30;9.27;;;2.85;;
28166;SDS011;15455;53.376;-6.262;2023-05-07T06:49:15;8.25;;;2.65;;
28166;SDS011;15455;53.376;-6.262;2023-05-07T06:52:01;8.52;;;2.60;;
28166;SDS011;15455;53.376;-6.262;2023-05-07T06:54:47;6.10;;;2.65;;
28166;SDS011;15455;53.376;-6.262;2023-05-07T06:57:34;8.32;;;2.95;;
28166;SDS011;15455;53.376;-6.262;2023-05-07T07:00:20;3.97;;;2.13;;
28166;SDS011;15455;53.376;-6.262;2023-05-07T07:03:11;6.30;;;2.85;;
28166;SDS011;15455;53.376;-6.262;2023-05-07T07:05:57;6.60;;;2.85;;
28166;SDS011;15455;53.376;-6.262;2023-05-07T07:08:43;5.75;;;2.58;;
28166;SDS011;15455;53.376;-6.262;2023-05-07T07:11:32;6.43;;;2.88;;
28166;SDS011;15455;53.376;-6.262;2023-05-07T07:14:18;5.70;;;2.78;;
28166;SDS011;15455;53.376;-6.262;2023-05-07T07:17:07;7.90;;;3.35;;
28166;SDS011;15455;53.376;-6.262;2023-05-07T07:19:53;11.82;;;2.53;;
28166;SDS011;15455;53.376;-6.262;2023-05-07T07:22:38;4.75;;;2.42;;
28166;SDS011;15455;53.376;-6.262;2023-05-07T07:25:25;9.98;;;2.72;;
28166;SDS011;15455;53.376;-6.262;2023-05-07T07:28:10;4.90;;;2.40;;
28166;SDS011;15455;53.376;-6.262;2023-05-07T07:30:56;3.42;;;1.92;;
28166;SDS011;15455;53.376;-6.262;2023-05-07T07:33:41;4.47;;;1.77;;
28166;SDS011;15455;53.376;-6.262;2023-05-07T07:36:27;5.60;;;2.17;;
28166;SDS011;15455;53.376;-6.262;2023-05-07T07:39:31;5.85;;;2.28;;
28166;SDS011;15455;53.376;-6.262;2023-05-07T07:42:20;5.38;;;1.98;;
28166;SDS011;15455;53.376;-6.262;2023-05-07T07:45:06;6.93;;;2.00;;
28166;SDS011;15455;53.376;-6.262;2023-05-07T07:47:56;12.77;;;2.22;;
28166;SDS011;15455;53.376;-6.262;2023-05-07T07:50:42;13.30;;;2.22;;
28166;SDS011;15455;53.376;-6.262;2023-05-07T07:53:32;7.28;;;2.00;;
28166;SDS011;15455;53.376;-6.262;2023-05-07T07:56:17;7.55;;;2.10;;
28166;SDS011;15455;53.376;-6.262;2023-05-07T07:59:02;8.18;;;2.35;;
28166;SDS011;15455;53.376;-6.262;2023-05-07T08:01:49;15.25;;;2.90;;
28166;SDS011;15455;53.376;-6.262;2023-05-07T08:04:41;8.63;;;2.78;;
28166;SDS011;15455;53.376;-6.262;2023-05-07T08:07:29;12.68;;;2.65;;
28166;SDS011;15455;53.376;-6.262;2023-05-07T08:10:15;7.82;;;1.92;;
28166;SDS011;15455;53.376;-6.262;2023-05-07T08:13:10;8.55;;;1.92;;
28166;SDS011;15455;53.376;-6.262;2023-05-07T08:15:57;2.42;;;1.25;;
28166;SDS011;15455;53.376;-6.262;2023-05-07T08:18:43;3.58;;;1.60;;
28166;SDS011;15455;53.376;-6.262;2023-05-07T08:21:29;11.30;;;2.53;;
28166;SDS011;15455;53.376;-6.262;2023-05-07T08:24:19;3.88;;;1.23;;
28166;SDS011;15455;53.376;-6.262;2023-05-07T08:27:05;4.72;;;1.50;;
28166;SDS011;15455;53.376;-6.262;2023-05-07T08:29:51;4.00;;;1.33;;
28166;SDS011;15455;53.376;-6.262;2023-05-07T08:32:38;6.93;;;1.65;;
28166;SDS011;15455;53.376;-6.262;2023-05-07T08:35:23;2.13;;;1.20;;
28166;SDS011;15455;53.376;-6.262;2023-05-07T08:38:09;9.30;;;2.05;;
28166;SDS011;15455;53.376;-6.262;2023-05-07T08:40:55;8.90;;;1.50;;
28166;SDS011;15455;53.376;-6.262;2023-05-07T08:43:41;3.13;;;1.20;;
28166;SDS011;15455;53.376;-6.262;2023-05-07T08:46:28;4.15;;;1.60;;
28166;SDS011;15455;53.376;-6.262;2023-05-07T08:49:17;3.25;;;1.27;;
28166;SDS011;15455;53.376;-6.262;2023-05-07T08:52:03;3.95;;;1.50;;
28166;SDS011;15455;53.376;-6.262;2023-05-07T08:54:48;4.80;;;1.10;;
28166;SDS011;15455;53.376;-6.262;2023-05-07T08:57:34;5.15;;;1.30;;
28166;SDS011;15455;53.376;-6.262;2023-05-07T09:00:22;7.45;;;1.40;;
28166;SDS011;15455;53.376;-6.262;2023-05-07T09:03:10;4.65;;;1.80;;
28166;SDS011;15455;53.376;-6.262;2023-05-07T09:06:00;8.45;;;2.03;;
28166;SDS011;15455;53.376;-6.262;2023-05-07T09:08:50;4.82;;;1.40;;
28166;SDS011;15455;53.376;-6.262;2023-05-07T09:11:38;6.75;;;1.75;;
28166;SDS011;15455;53.376;-6.262;2023-05-07T09:14:24;6.38;;;1.70;;
28166;SDS011;15455;53.376;-6.262;2023-05-07T09:17:09;3.60;;;1.40;;
28166;SDS011;15455;53.376;-6.262;2023-05-07T09:19:55;4.72;;;1.50;;
28166;SDS011;15455;53.376;-6.262;2023-05-07T09:22:41;3.05;;;1.20;;
28166;SDS011;15455;53.376;-6.262;2023-05-07T09:25:30;5.40;;;1.58;;
28166;SDS011;15455;53.376;-6.262;2023-05-07T09:28:22;7.35;;;1.50;;
28166;SDS011;15455;53.376;-6.262;2023-05-07T09:31:08;4.00;;;1.30;;
28166;SDS011;15455;53.376;-6.262;2023-05-07T09:33:55;2.45;;;1.20;;
28166;SDS011;15455;53.376;-6.262;2023-05-07T09:36:45;7.70;;;1.30;;
28166;SDS011;15455;53.376;-6.262;2023-05-07T09:39:42;8.07;;;1.52;;
28166;SDS011;15455;53.376;-6.262;2023-05-07T09:42:30;5.53;;;2.00;;
28166;SDS011;15455;53.376;-6.262;2023-05-07T09:45:26;3.03;;;1.35;;
28166;SDS011;15455;53.376;-6.262;2023-05-07T09:48:15;4.05;;;1.30;;
28166;SDS011;15455;53.376;-6.262;2023-05-07T09:51:06;4.00;;;1.60;;
28166;SDS011;15455;53.376;-6.262;2023-05-07T09:54:02;5.13;;;1.40;;
28166;SDS011;15455;53.376;-6.262;2023-05-07T09:56:52;7.68;;;1.20;;
28166;SDS011;15455;53.376;-6.262;2023-05-07T09:59:42;6.13;;;1.40;;
28166;SDS011;15455;53.376;-6.262;2023-05-07T10:02:31;2.50;;;1.27;;
28166;SDS011;15455;53.376;-6.262;2023-05-07T10:05:21;2.80;;;1.17;;
28166;SDS011;15455;53.376;-6.262;2023-05-07T10:08:09;5.35;;;1.08;;
28166;SDS011;15455;53.376;-6.262;2023-05-07T10:10:58;3.05;;;1.00;;
28166;SDS011;15455;53.376;-6.262;2023-05-07T10:13:46;3.53;;;1.02;;
28166;SDS011;15455;53.376;-6.262;2023-05-07T10:16:34;3.50;;;1.00;;
28166;SDS011;15455;53.376;-6.262;2023-05-07T10:19:25;6.15;;;1.38;;
28166;SDS011;15455;53.376;-6.262;2023-05-07T10:22:14;4.43;;;1.50;;
28166;SDS011;15455;53.376;-6.262;2023-05-07T10:25:04;3.55;;;0.88;;
28166;SDS011;15455;53.376;-6.262;2023-05-07T10:27:55;2.95;;;1.08;;
28166;SDS011;15455;53.376;-6.262;2023-05-07T10:34:00;4.40;;;1.30;;
28166;SDS011;15455;53.376;-6.262;2023-05-07T10:36:48;8.02;;;1.50;;
28166;SDS011;15455;53.376;-6.262;2023-05-07T10:39:35;1.60;;;1.25;;
28166;SDS011;15455;53.376;-6.262;2023-05-07T10:42:22;2.38;;;1.38;;
28166;SDS011;15455;53.376;-6.262;2023-05-07T10:45:12;3.67;;;1.65;;
28166;SDS011;15455;53.376;-6.262;2023-05-07T10:51:18;2.75;;;1.50;;
28166;SDS011;15455;53.376;-6.262;2023-05-07T11:03:27;6.25;;;1.42;;
28166;SDS011;15455;53.376;-6.262;2023-05-07T11:06:18;5.47;;;1.80;;
28166;SDS011;15455;53.376;-6.262;2023-05-07T11:09:08;3.22;;;1.70;;
28166;SDS011;15455;53.376;-6.262;2023-05-07T11:12:02;4.05;;;1.80;;
28166;SDS011;15455;53.376;-6.262;2023-05-07T11:15:00;4.47;;;1.75;;
28166;SDS011;15455;53.376;-6.262;2023-05-07T11:17:52;6.73;;;2.83;;
28166;SDS011;15455;53.376;-6.262;2023-05-07T11:20:47;4.72;;;2.10;;
28166;SDS011;15455;53.376;-6.262;2023-05-07T11:24:09;5.60;;;2.55;;
28166;SDS011;15455;53.376;-6.262;2023-05-07T11:27:09;4.38;;;1.85;;
28166;SDS011;15455;53.376;-6.262;2023-05-07T11:29:55;3.35;;;1.88;;
28166;SDS011;15455;53.376;-6.262;2023-05-07T11:32:42;3.17;;;1.50;;
28166;SDS011;15455;53.376;-6.262;2023-05-07T11:35:28;5.95;;;2.00;;
28166;SDS011;15455;53.376;-6.262;2023-05-07T11:38:15;3.75;;;2.13;;
28166;SDS011;15455;53.376;-6.262;2023-05-07T11:41:02;6.10;;;2.15;;
28166;SDS011;15455;53.376;-6.262;2023-05-07T11:43:53;5.38;;;2.10;;
28166;SDS011;15455;53.376;-6.262;2023-05-07T11:46:45;4.28;;;1.90;;
28166;SDS011;15455;53.376;-6.262;2023-05-07T11:49:31;5.75;;;2.30;;
28166;SDS011;15455;53.376;-6.262;2023-05-07T11:52:16;4.03;;;2.40;;
28166;SDS011;15455;53.376;-6.262;2023-05-07T11:55:03;4.07;;;2.28;;
28166;SDS011;15455;53.376;-6.262;2023-05-07T11:57:50;5.55;;;1.85;;
28166;SDS011;15455;53.376;-6.262;2023-05-07T12:00:35;2.53;;;1.60;;
28166;SDS011;15455;53.376;-6.262;2023-05-07T12:03:20;1.88;;;1.00;;
28166;SDS011;15455;53.376;-6.262;2023-05-07T12:06:06;2.05;;;1.20;;
28166;SDS011;15455;53.376;-6.262;2023-05-07T12:08:52;5.45;;;1.63;;
28166;SDS011;15455;53.376;-6.262;2023-05-07T12:11:38;3.03;;;1.42;;
28166;SDS011;15455;53.376;-6.262;2023-05-07T12:14:27;7.63;;;1.98;;
28166;SDS011;15455;53.376;-6.262;2023-05-07T12:17:14;3.97;;;1.60;;
28166;SDS011;15455;53.376;-6.262;2023-05-07T12:19:59;2.67;;;1.67;;
28166;SDS011;15455;53.376;-6.262;2023-05-07T12:22:45;6.07;;;2.33;;
28166;SDS011;15455;53.376;-6.262;2023-05-07T12:25:35;7.38;;;1.90;;
28166;SDS011;15455;53.376;-6.262;2023-05-07T12:28:25;3.50;;;1.63;;
28166;SDS011;15455;53.376;-6.262;2023-05-07T12:31:10;9.15;;;2.30;;
28166;SDS011;15455;53.376;-6.262;2023-05-07T12:33:55;3.92;;;1.67;;
28166;SDS011;15455;53.376;-6.262;2023-05-07T12:36:41;5.00;;;2.10;;
28166;SDS011;15455;53.376;-6.262;2023-05-07T12:39:27;4.95;;;2.00;;
28166;SDS011;15455;53.376;-6.262;2023-05-07T12:42:16;7.22;;;2.00;;
28166;SDS011;15455;53.376;-6.262;2023-05-07T12:45:08;2.72;;;1.38;;
28166;SDS011;15455;53.376;-6.262;2023-05-07T12:48:01;4.82;;;1.27;;
28166;SDS011;15455;53.376;-6.262;2023-05-07T12:50:51;5.18;;;1.65;;
28166;SDS011;15455;53.376;-6.262;2023-05-07T12:53:41;5.20;;;1.15;;
28166;SDS011;15455;53.376;-6.262;2023-05-07T12:56:30;4.35;;;1.05;;
28166;SDS011;15455;53.376;-6.262;2023-05-07T12:59:16;2.17;;;1.00;;
28166;SDS011;15455;53.376;-6.262;2023-05-07T13:02:01;4.43;;;1.27;;
28166;SDS011;15455;53.376;-6.262;2023-05-07T13:04:47;2.63;;;1.20;;
28166;SDS011;15455;53.376;-6.262;2023-05-07T13:07:33;6.30;;;1.10;;
28166;SDS011;15455;53.376;-6.262;2023-05-07T13:10:19;2.75;;;0.90;;
28166;SDS011;15455;53.376;-6.262;2023-05-07T13:13:04;2.30;;;1.67;;
28166;SDS011;15455;53.376;-6.262;2023-05-07T13:15:50;1.00;;;0.70;;
28166;SDS011;15455;53.376;-6.262;2023-05-07T13:18:35;2.05;;;0.95;;
28166;SDS011;15455;53.376;-6.262;2023-05-07T13:21:22;2.85;;;0.90;;
28166;SDS011;15455;53.376;-6.262;2023-05-07T13:24:07;1.67;;;1.00;;
28166;SDS011;15455;53.376;-6.262;2023-05-07T13:26:53;1.55;;;0.52;;
28166;SDS011;15455;53.376;-6.262;2023-05-07T13:29:38;5.57;;;0.80;;
28166;SDS011;15455;53.376;-6.262;2023-05-07T13:32:24;2.30;;;0.70;;
28166;SDS011;15455;53.376;-6.262;2023-05-07T13:35:09;5.55;;;1.00;;
28166;SDS011;15455;53.376;-6.262;2023-05-07T13:37:55;2.35;;;0.60;;
28166;SDS011;15455;53.376;-6.262;2023-05-07T13:40:40;1.45;;;0.50;;
28166;SDS011;15455;53.376;-6.262;2023-05-07T13:43:26;0.98;;;0.60;;
28166;SDS011;15455;53.376;-6.262;2023-05-07T13:46:11;0.93;;;0.55;;
28166;SDS011;15455;53.376;-6.262;2023-05-07T13:48:57;1.05;;;0.57;;
28166;SDS011;15455;53.376;-6.262;2023-05-07T13:51:42;3.35;;;0.82;;
28166;SDS011;15455;53.376;-6.262;2023-05-07T13:54:27;2.03;;;0.50;;
28166;SDS011;15455;53.376;-6.262;2023-05-07T13:57:13;1.38;;;0.38;;
28166;SDS011;15455;53.376;-6.262;2023-05-07T13:59:58;2.25;;;0.70;;
28166;SDS011;15455;53.376;-6.262;2023-05-07T14:02:44;1.02;;;0.52;;
28166;SDS011;15455;53.376;-6.262;2023-05-07T14:05:29;0.50;;;0.50;;
28166;SDS011;15455;53.376;-6.262;2023-05-07T14:08:15;0.45;;;0.43;;
28166;SDS011;15455;53.376;-6.262;2023-05-07T14:11:03;1.25;;;0.57;;
28166;SDS011;15455;53.376;-6.262;2023-05-07T14:13:49;2.47;;;0.70;;
28166;SDS011;15455;53.376;-6.262;2023-05-07T14:16:34;0.93;;;0.50;;
28166;SDS011;15455;53.376;-6.262;2023-05-07T14:19:20;1.70;;;0.60;;
28166;SDS011;15455;53.376;-6.262;2023-05-07T14:22:08;0.77;;;0.60;;
28166;SDS011;15455;53.376;-6.262;2023-05-07T14:24:54;2.80;;;0.60;;
28166;SDS011;15455;53.376;-6.262;2023-05-07T14:27:51;1.90;;;0.77;;
28166;SDS011;15455;53.376;-6.262;2023-05-07T14:30:36;0.60;;;0.60;;
28166;SDS011;15455;53.376;-6.262;2023-05-07T14:33:21;2.33;;;0.60;;
28166;SDS011;15455;53.376;-6.262;2023-05-07T14:36:07;5.82;;;0.70;;
28166;SDS011;15455;53.376;-6.262;2023-05-07T14:38:52;1.23;;;0.77;;
28166;SDS011;15455;53.376;-6.262;2023-05-07T14:41:43;1.00;;;0.77;;
28166;SDS011;15455;53.376;-6.262;2023-05-07T14:44:29;1.27;;;0.65;;
28166;SDS011;15455;53.376;-6.262;2023-05-07T14:47:16;0.93;;;0.55;;
28166;SDS011;15455;53.376;-6.262;2023-05-07T14:50:03;0.73;;;0.50;;
28166;SDS011;15455;53.376;-6.262;2023-05-07T14:52:49;2.70;;;0.88;;
28166;SDS011;15455;53.376;-6.262;2023-05-07T14:55:35;1.40;;;0.70;;
28166;SDS011;15455;53.376;-6.262;2023-05-07T14:58:20;4.30;;;0.80;;
28166;SDS011;15455;53.376;-6.262;2023-05-07T15:01:06;1.08;;;0.45;;
28166;SDS011;15455;53.376;-6.262;2023-05-07T15:03:51;0.52;;;0.50;;
28166;SDS011;15455;53.376;-6.262;2023-05-07T15:06:37;1.05;;;0.50;;
28166;SDS011;15455;53.376;-6.262;2023-05-07T15:09:22;1.83;;;0.70;;
28166;SDS011;15455;53.376;-6.262;2023-05-07T15:12:08;1.17;;;0.55;;
28166;SDS011;15455;53.376;-6.262;2023-05-07T15:14:53;2.28;;;0.85;;
28166;SDS011;15455;53.376;-6.262;2023-05-07T15:17:39;2.92;;;0.80;;
28166;SDS011;15455;53.376;-6.262;2023-05-07T15:20:24;2.22;;;0.70;;
28166;SDS011;15455;53.376;-6.262;2023-05-07T15:23:11;3.00;;;0.50;;
28166;SDS011;15455;53.376;-6.262;2023-05-07T15:28:48;1.35;;;0.50;;
28166;SDS011;15455;53.376;-6.262;2023-05-07T15:31:34;2.22;;;0.88;;
28166;SDS011;15455;53.376;-6.262;2023-05-07T15:34:19;1.70;;;0.82;;
28166;SDS011;15455;53.376;-6.262;2023-05-07T15:37:06;2.97;;;0.85;;
28166;SDS011;15455;53.376;-6.262;2023-05-07T15:39:51;3.30;;;0.68;;
28166;SDS011;15455;53.376;-6.262;2023-05-07T15:42:36;3.20;;;0.80;;
28166;SDS011;15455;53.376;-6.262;2023-05-07T15:45:22;1.67;;;0.95;;
28166;SDS011;15455;53.376;-6.262;2023-05-07T15:48:09;6.68;;;0.73;;
28166;SDS011;15455;53.376;-6.262;2023-05-07T15:50:55;3.92;;;1.05;;
28166;SDS011;15455;53.376;-6.262;2023-05-07T15:53:40;2.58;;;1.13;;
28166;SDS011;15455;53.376;-6.262;2023-05-07T15:56:26;2.05;;;0.90;;
28166;SDS011;15455;53.376;-6.262;2023-05-07T15:59:11;3.50;;;0.50;;
28166;SDS011;15455;53.376;-6.262;2023-05-07T16:01:57;3.85;;;0.70;;
28166;SDS011;15455;53.376;-6.262;2023-05-07T16:04:43;3.42;;;0.90;;
28166;SDS011;15455;53.376;-6.262;2023-05-07T16:07:28;1.65;;;0.55;;
28166;SDS011;15455;53.376;-6.262;2023-05-07T16:10:14;1.52;;;0.80;;
28166;SDS011;15455;53.376;-6.262;2023-05-07T16:12:59;2.83;;;0.77;;
28166;SDS011;15455;53.376;-6.262;2023-05-07T16:15:46;2.60;;;0.68;;
28166;SDS011;15455;53.376;-6.262;2023-05-07T16:18:32;2.35;;;0.90;;
28166;SDS011;15455;53.376;-6.262;2023-05-07T16:21:17;6.28;;;0.82;;
28166;SDS011;15455;53.376;-6.262;2023-05-07T16:24:03;2.67;;;1.52;;
28166;SDS011;15455;53.376;-6.262;2023-05-07T16:26:49;3.53;;;0.93;;
28166;SDS011;15455;53.376;-6.262;2023-05-07T16:29:34;4.22;;;0.90;;
28166;SDS011;15455;53.376;-6.262;2023-05-07T16:32:20;3.40;;;0.90;;
28166;SDS011;15455;53.376;-6.262;2023-05-07T16:35:06;5.55;;;1.08;;
28166;SDS011;15455;53.376;-6.262;2023-05-07T16:37:51;5.78;;;0.82;;
28166;SDS011;15455;53.376;-6.262;2023-05-07T16:40:37;7.85;;;1.10;;
28166;SDS011;15455;53.376;-6.262;2023-05-07T16:43:24;4.18;;;0.88;;
28166;SDS011;15455;53.376;-6.262;2023-05-07T16:46:09;1.85;;;0.80;;
28166;SDS011;15455;53.376;-6.262;2023-05-07T16:48:55;5.40;;;1.15;;